Main page
METAR-TAF:

METAR-TAF

Airports :

Pointe-Noire, Congo

Pointe Noire Airport

latitude: 04-49S, longitude: 011-54E, elevation: 17 m

Current weather observation

The report was made 55 minutes ago, at 22:00 UTC
Wind 4 kt from the South
Temperature 23°C
Humidity 89%
Pressure 1014 hPa
Visibility: 8000 m
Few clouds at a height of 1000 ft
Overcast at a height of 2300 ft

METAR: FCPP 232200Z 18004KT 8000 FEW010 OVC023 23/21 Q1014 NOSIG

Time: 23:55 (22:55 UTC)

Forecast

The report was made 5 hours and 55 minutes ago, at 17:00 UTC
Forecast valid from 23 at 18 UTC to 24 at 18 UTC
Wind 4 kt from the South/Southwest
Visibility: 8000 m
Scattered clouds at a height of 2000 ft
Probability 30%
from 24 at 04 UTC to 24 at 08 UTC
Visibility: 4000 m
mist

TAF: FCPP 231700Z 2318/2418 20004KT 8000 SCT020 PROB30 2404/2408 4000 BR

Weather observations and forecasts of more than 4000 airports (METAR and TAF reports).

The available stations are represented by yellow and red dots on the map.

Hover mouse over dot to see the name of the station.

Then click to see weather observations and forecasts.

To change the map : click on the green buttons with a black cross to zoom in, on the green button with a dash to zoom out, or on the green arrows for adjacent maps.


METAR-TAF: